sensor_id;sensor_type;location;lat;lon;timestamp;P1;durP1;ratioP1;P2;durP2;ratioP2
82316;SDS011;71926;47.446;18.906;2023-07-31T16:35:58;4.43;;;1.30;;
82316;SDS011;71926;47.446;18.906;2023-07-31T16:38:23;3.72;;;1.42;;
82316;SDS011;71926;47.446;18.906;2023-07-31T16:40:49;5.10;;;1.33;;
82316;SDS011;71926;47.446;18.906;2023-07-31T16:43:14;3.50;;;1.40;;
82316;SDS011;71926;47.446;18.906;2023-07-31T16:45:40;4.43;;;1.42;;
82316;SDS011;71926;47.446;18.906;2023-07-31T16:48:05;4.80;;;1.23;;
82316;SDS011;71926;47.446;18.906;2023-07-31T16:50:30;4.43;;;1.37;;
82316;SDS011;71926;47.446;18.906;2023-07-31T16:52:56;2.73;;;1.07;;
82316;SDS011;71926;47.446;18.906;2023-07-31T16:55:21;4.20;;;1.20;;
82316;SDS011;71926;47.446;18.906;2023-07-31T16:57:47;3.42;;;1.20;;
82316;SDS011;71926;47.446;18.906;2023-07-31T17:00:12;4.82;;;1.30;;
82316;SDS011;71926;47.446;18.906;2023-07-31T17:02:38;4.28;;;1.50;;
82316;SDS011;71926;47.446;18.906;2023-07-31T17:05:03;4.90;;;1.17;;
82316;SDS011;71926;47.446;18.906;2023-07-31T17:07:30;2.08;;;1.13;;
82316;SDS011;71926;47.446;18.906;2023-07-31T17:09:55;5.20;;;1.70;;
82316;SDS011;71926;47.446;18.906;2023-07-31T17:12:21;3.35;;;1.10;;
82316;SDS011;71926;47.446;18.906;2023-07-31T17:14:46;2.35;;;1.20;;
82316;SDS011;71926;47.446;18.906;2023-07-31T17:17:12;6.30;;;1.50;;
82316;SDS011;71926;47.446;18.906;2023-07-31T17:19:37;3.57;;;1.40;;
82316;SDS011;71926;47.446;18.906;2023-07-31T17:22:02;6.10;;;1.83;;
82316;SDS011;71926;47.446;18.906;2023-07-31T17:24:28;2.85;;;1.30;;
82316;SDS011;71926;47.446;18.906;2023-07-31T17:26:53;3.45;;;1.30;;
82316;SDS011;71926;47.446;18.906;2023-07-31T17:29:19;3.22;;;1.20;;
82316;SDS011;71926;47.446;18.906;2023-07-31T17:31:44;3.50;;;1.40;;
82316;SDS011;71926;47.446;18.906;2023-07-31T17:34:09;3.85;;;1.38;;
82316;SDS011;71926;47.446;18.906;2023-07-31T17:36:35;3.50;;;1.30;;
82316;SDS011;71926;47.446;18.906;2023-07-31T17:39:00;5.17;;;1.40;;
82316;SDS011;71926;47.446;18.906;2023-07-31T17:41:26;4.03;;;1.30;;
82316;SDS011;71926;47.446;18.906;2023-07-31T17:43:52;2.90;;;1.20;;
82316;SDS011;71926;47.446;18.906;2023-07-31T17:46:17;2.85;;;1.10;;
82316;SDS011;71926;47.446;18.906;2023-07-31T17:48:43;3.17;;;1.50;;
82316;SDS011;71926;47.446;18.906;2023-07-31T17:51:08;5.07;;;1.60;;
82316;SDS011;71926;47.446;18.906;2023-07-31T17:53:34;4.10;;;1.52;;
82316;SDS011;71926;47.446;18.906;2023-07-31T17:55:59;4.37;;;1.30;;
82316;SDS011;71926;47.446;18.906;2023-07-31T17:58:24;5.57;;;1.40;;
82316;SDS011;71926;47.446;18.906;2023-07-31T18:00:50;4.37;;;1.77;;
82316;SDS011;71926;47.446;18.906;2023-07-31T18:03:16;4.85;;;1.88;;
82316;SDS011;71926;47.446;18.906;2023-07-31T18:05:41;3.37;;;1.20;;
82316;SDS011;71926;47.446;18.906;2023-07-31T18:08:06;5.43;;;1.43;;
82316;SDS011;71926;47.446;18.906;2023-07-31T18:10:32;4.65;;;1.52;;
82316;SDS011;71926;47.446;18.906;2023-07-31T18:12:58;4.75;;;1.30;;
82316;SDS011;71926;47.446;18.906;2023-07-31T18:15:24;3.23;;;2.10;;
82316;SDS011;71926;47.446;18.906;2023-07-31T18:17:49;4.87;;;1.73;;
82316;SDS011;71926;47.446;18.906;2023-07-31T18:20:15;4.60;;;1.30;;
82316;SDS011;71926;47.446;18.906;2023-07-31T18:22:40;2.92;;;1.45;;
82316;SDS011;71926;47.446;18.906;2023-07-31T18:25:06;3.13;;;1.35;;
82316;SDS011;71926;47.446;18.906;2023-07-31T18:27:34;4.32;;;1.20;;
82316;SDS011;71926;47.446;18.906;2023-07-31T18:29:59;3.25;;;1.42;;
82316;SDS011;71926;47.446;18.906;2023-07-31T18:32:24;3.97;;;1.50;;
82316;SDS011;71926;47.446;18.906;2023-07-31T18:34:50;4.20;;;1.20;;
82316;SDS011;71926;47.446;18.906;2023-07-31T18:37:15;2.13;;;1.20;;
82316;SDS011;71926;47.446;18.906;2023-07-31T18:39:40;6.25;;;1.92;;
82316;SDS011;71926;47.446;18.906;2023-07-31T18:42:06;3.27;;;1.50;;
82316;SDS011;71926;47.446;18.906;2023-07-31T18:44:31;4.00;;;1.60;;
82316;SDS011;71926;47.446;18.906;2023-07-31T18:46:57;4.77;;;1.70;;
82316;SDS011;71926;47.446;18.906;2023-07-31T18:49:22;4.87;;;1.53;;
82316;SDS011;71926;47.446;18.906;2023-07-31T18:51:47;5.07;;;1.80;;
82316;SDS011;71926;47.446;18.906;2023-07-31T18:54:13;3.40;;;1.47;;
82316;SDS011;71926;47.446;18.906;2023-07-31T18:56:38;4.03;;;1.73;;
82316;SDS011;71926;47.446;18.906;2023-07-31T18:59:03;4.63;;;1.80;;
82316;SDS011;71926;47.446;18.906;2023-07-31T19:01:29;4.20;;;1.70;;
82316;SDS011;71926;47.446;18.906;2023-07-31T19:03:54;3.70;;;1.40;;
82316;SDS011;71926;47.446;18.906;2023-07-31T19:06:19;5.50;;;1.47;;
82316;SDS011;71926;47.446;18.906;2023-07-31T19:08:44;2.93;;;1.33;;
82316;SDS011;71926;47.446;18.906;2023-07-31T19:11:10;2.67;;;1.33;;
82316;SDS011;71926;47.446;18.906;2023-07-31T19:13:38;5.43;;;1.65;;
82316;SDS011;71926;47.446;18.906;2023-07-31T19:16:05;3.45;;;1.98;;
82316;SDS011;71926;47.446;18.906;2023-07-31T19:18:30;5.07;;;1.60;;
82316;SDS011;71926;47.446;18.906;2023-07-31T19:20:56;3.08;;;1.45;;
82316;SDS011;71926;47.446;18.906;2023-07-31T19:23:21;4.30;;;1.50;;
82316;SDS011;71926;47.446;18.906;2023-07-31T19:25:47;5.13;;;1.90;;
82316;SDS011;71926;47.446;18.906;2023-07-31T19:28:12;4.20;;;1.60;;
82316;SDS011;71926;47.446;18.906;2023-07-31T19:30:38;5.43;;;1.83;;
82316;SDS011;71926;47.446;18.906;2023-07-31T19:33:04;6.57;;;1.70;;
82316;SDS011;71926;47.446;18.906;2023-07-31T19:35:30;5.03;;;1.90;;
82316;SDS011;71926;47.446;18.906;2023-07-31T19:37:55;6.05;;;1.88;;
82316;SDS011;71926;47.446;18.906;2023-07-31T19:40:20;5.50;;;2.00;;
82316;SDS011;71926;47.446;18.906;2023-07-31T19:42:50;3.08;;;1.52;;
82316;SDS011;71926;47.446;18.906;2023-07-31T19:45:16;3.72;;;1.50;;
82316;SDS011;71926;47.446;18.906;2023-07-31T19:47:42;7.32;;;2.70;;
82316;SDS011;71926;47.446;18.906;2023-07-31T19:50:07;4.73;;;2.60;;
82316;SDS011;71926;47.446;18.906;2023-07-31T19:52:33;9.65;;;2.42;;
82316;SDS011;71926;47.446;18.906;2023-07-31T19:54:58;6.50;;;2.20;;
82316;SDS011;71926;47.446;18.906;2023-07-31T19:57:23;5.87;;;1.83;;
82316;SDS011;71926;47.446;18.906;2023-07-31T19:59:48;12.27;;;3.00;;
82316;SDS011;71926;47.446;18.906;2023-07-31T20:02:14;6.67;;;2.60;;
82316;SDS011;71926;47.446;18.906;2023-07-31T20:04:39;7.37;;;2.43;;
82316;SDS011;71926;47.446;18.906;2023-07-31T20:07:04;7.37;;;2.77;;
82316;SDS011;71926;47.446;18.906;2023-07-31T20:09:30;5.82;;;2.45;;
82316;SDS011;71926;47.446;18.906;2023-07-31T20:11:55;5.75;;;2.53;;
82316;SDS011;71926;47.446;18.906;2023-07-31T20:14:21;7.20;;;2.30;;
82316;SDS011;71926;47.446;18.906;2023-07-31T20:16:46;7.47;;;2.47;;
82316;SDS011;71926;47.446;18.906;2023-07-31T20:19:11;6.43;;;2.20;;
82316;SDS011;71926;47.446;18.906;2023-07-31T20:21:37;5.10;;;2.23;;
82316;SDS011;71926;47.446;18.906;2023-07-31T20:24:06;5.05;;;2.03;;
82316;SDS011;71926;47.446;18.906;2023-07-31T20:26:32;3.50;;;1.98;;
82316;SDS011;71926;47.446;18.906;2023-07-31T20:28:58;7.07;;;2.13;;
82316;SDS011;71926;47.446;18.906;2023-07-31T20:31:23;3.43;;;1.90;;
82316;SDS011;71926;47.446;18.906;2023-07-31T20:33:48;5.60;;;1.75;;
82316;SDS011;71926;47.446;18.906;2023-07-31T20:36:14;6.37;;;2.10;;
82316;SDS011;71926;47.446;18.906;2023-07-31T20:38:39;5.63;;;1.95;;
82316;SDS011;71926;47.446;18.906;2023-07-31T20:41:05;5.22;;;1.75;;
82316;SDS011;71926;47.446;18.906;2023-07-31T20:43:30;3.53;;;1.70;;
82316;SDS011;71926;47.446;18.906;2023-07-31T20:45:55;7.07;;;1.87;;
82316;SDS011;71926;47.446;18.906;2023-07-31T20:48:21;3.33;;;1.70;;
82316;SDS011;71926;47.446;18.906;2023-07-31T20:50:46;3.93;;;2.00;;
82316;SDS011;71926;47.446;18.906;2023-07-31T20:53:12;5.38;;;2.05;;
82316;SDS011;71926;47.446;18.906;2023-07-31T20:55:38;4.05;;;1.83;;
82316;SDS011;71926;47.446;18.906;2023-07-31T20:58:04;3.25;;;1.60;;
82316;SDS011;71926;47.446;18.906;2023-07-31T21:00:29;3.67;;;2.00;;
82316;SDS011;71926;47.446;18.906;2023-07-31T21:02:54;4.53;;;1.73;;
82316;SDS011;71926;47.446;18.906;2023-07-31T21:05:20;4.30;;;1.70;;
82316;SDS011;71926;47.446;18.906;2023-07-31T21:07:45;4.93;;;2.10;;
82316;SDS011;71926;47.446;18.906;2023-07-31T21:10:10;3.67;;;2.00;;
82316;SDS011;71926;47.446;18.906;2023-07-31T21:12:36;2.80;;;1.58;;
82316;SDS011;71926;47.446;18.906;2023-07-31T21:15:05;3.50;;;1.70;;
82316;SDS011;71926;47.446;18.906;2023-07-31T21:17:32;3.55;;;1.75;;
82316;SDS011;71926;47.446;18.906;2023-07-31T21:19:57;3.45;;;1.60;;
82316;SDS011;71926;47.446;18.906;2023-07-31T21:22:23;5.10;;;1.70;;
82316;SDS011;71926;47.446;18.906;2023-07-31T21:24:50;3.72;;;1.70;;
82316;SDS011;71926;47.446;18.906;2023-07-31T21:27:15;4.35;;;1.60;;
82316;SDS011;71926;47.446;18.906;2023-07-31T21:29:41;4.20;;;1.70;;
82316;SDS011;71926;47.446;18.906;2023-07-31T21:32:06;6.40;;;1.83;;
82316;SDS011;71926;47.446;18.906;2023-07-31T21:34:31;3.22;;;1.50;;
82316;SDS011;71926;47.446;18.906;2023-07-31T21:36:57;3.83;;;1.47;;
82316;SDS011;71926;47.446;18.906;2023-07-31T21:39:22;3.70;;;1.70;;
82316;SDS011;71926;47.446;18.906;2023-07-31T21:41:47;6.37;;;2.03;;
82316;SDS011;71926;47.446;18.906;2023-07-31T21:44:13;3.30;;;1.70;;
82316;SDS011;71926;47.446;18.906;2023-07-31T21:46:38;3.90;;;1.50;;
82316;SDS011;71926;47.446;18.906;2023-07-31T21:49:03;4.00;;;1.77;;
82316;SDS011;71926;47.446;18.906;2023-07-31T21:51:28;5.00;;;1.80;;
82316;SDS011;71926;47.446;18.906;2023-07-31T21:53:54;4.30;;;1.60;;
82316;SDS011;71926;47.446;18.906;2023-07-31T21:56:19;5.03;;;1.93;;
82316;SDS011;71926;47.446;18.906;2023-07-31T21:58:44;4.13;;;1.48;;
82316;SDS011;71926;47.446;18.906;2023-07-31T22:01:10;4.63;;;1.90;;
82316;SDS011;71926;47.446;18.906;2023-07-31T22:03:35;3.97;;;1.70;;
82316;SDS011;71926;47.446;18.906;2023-07-31T22:06:01;3.05;;;1.80;;
82316;SDS011;71926;47.446;18.906;2023-07-31T22:08:27;3.50;;;1.73;;
82316;SDS011;71926;47.446;18.906;2023-07-31T22:10:52;4.10;;;1.50;;
82316;SDS011;71926;47.446;18.906;2023-07-31T22:13:18;3.93;;;2.13;;
82316;SDS011;71926;47.446;18.906;2023-07-31T22:15:43;3.17;;;1.60;;
82316;SDS011;71926;47.446;18.906;2023-07-31T22:18:08;6.27;;;1.80;;
82316;SDS011;71926;47.446;18.906;2023-07-31T22:20:33;4.23;;;1.87;;
82316;SDS011;71926;47.446;18.906;2023-07-31T22:22:59;7.43;;;1.90;;
82316;SDS011;71926;47.446;18.906;2023-07-31T22:25:24;4.50;;;2.00;;
82316;SDS011;71926;47.446;18.906;2023-07-31T22:27:49;5.33;;;1.70;;
82316;SDS011;71926;47.446;18.906;2023-07-31T22:30:15;5.32;;;2.00;;
82316;SDS011;71926;47.446;18.906;2023-07-31T22:32:41;5.32;;;1.55;;
82316;SDS011;71926;47.446;18.906;2023-07-31T22:35:06;4.07;;;1.43;;
82316;SDS011;71926;47.446;18.906;2023-07-31T22:37:32;3.20;;;1.80;;
82316;SDS011;71926;47.446;18.906;2023-07-31T22:39:57;4.27;;;1.43;;
82316;SDS011;71926;47.446;18.906;2023-07-31T22:42:22;3.30;;;1.80;;
82316;SDS011;71926;47.446;18.906;2023-07-31T22:44:48;5.47;;;1.70;;
82316;SDS011;71926;47.446;18.906;2023-07-31T22:47:13;3.97;;;1.80;;
82316;SDS011;71926;47.446;18.906;2023-07-31T22:49:38;4.87;;;1.67;;
82316;SDS011;71926;47.446;18.906;2023-07-31T22:52:04;6.27;;;1.60;;
82316;SDS011;71926;47.446;18.906;2023-07-31T22:54:29;4.18;;;1.40;;
82316;SDS011;71926;47.446;18.906;2023-07-31T22:56:54;4.13;;;1.70;;
82316;SDS011;71926;47.446;18.906;2023-07-31T22:59:20;3.80;;;1.77;;
82316;SDS011;71926;47.446;18.906;2023-07-31T23:01:46;5.75;;;2.00;;
82316;SDS011;71926;47.446;18.906;2023-07-31T23:04:11;3.53;;;1.63;;
82316;SDS011;71926;47.446;18.906;2023-07-31T23:06:36;5.97;;;1.80;;
82316;SDS011;71926;47.446;18.906;2023-07-31T23:09:02;5.17;;;2.10;;
82316;SDS011;71926;47.446;18.906;2023-07-31T23:11:27;4.05;;;1.90;;
82316;SDS011;71926;47.446;18.906;2023-07-31T23:13:52;5.77;;;1.57;;
82316;SDS011;71926;47.446;18.906;2023-07-31T23:16:18;11.17;;;2.20;;
82316;SDS011;71926;47.446;18.906;2023-07-31T23:18:43;4.20;;;1.70;;
82316;SDS011;71926;47.446;18.906;2023-07-31T23:21:08;3.30;;;1.80;;
82316;SDS011;71926;47.446;18.906;2023-07-31T23:23:34;7.97;;;2.10;;
82316;SDS011;71926;47.446;18.906;2023-07-31T23:25:59;4.50;;;2.17;;
82316;SDS011;71926;47.446;18.906;2023-07-31T23:28:25;4.40;;;2.10;;
82316;SDS011;71926;47.446;18.906;2023-07-31T23:30:50;4.93;;;1.63;;
82316;SDS011;71926;47.446;18.906;2023-07-31T23:33:15;4.43;;;1.90;;
82316;SDS011;71926;47.446;18.906;2023-07-31T23:35:40;5.30;;;1.90;;
82316;SDS011;71926;47.446;18.906;2023-07-31T23:38:06;2.88;;;1.52;;
82316;SDS011;71926;47.446;18.906;2023-07-31T23:40:31;3.08;;;1.65;;
82316;SDS011;71926;47.446;18.906;2023-07-31T23:42:57;5.70;;;2.07;;
82316;SDS011;71926;47.446;18.906;2023-07-31T23:45:22;6.97;;;1.70;;
82316;SDS011;71926;47.446;18.906;2023-07-31T23:47:47;6.03;;;2.33;;
82316;SDS011;71926;47.446;18.906;2023-07-31T23:50:13;5.63;;;1.75;;
82316;SDS011;71926;47.446;18.906;2023-07-31T23:52:42;3.65;;;1.70;;
82316;SDS011;71926;47.446;18.906;2023-07-31T23:55:09;5.03;;;2.17;;
82316;SDS011;71926;47.446;18.906;2023-07-31T23:57:35;4.88;;;2.00;;
